sensor_id;sensor_type;location;lat;lon;timestamp;temperature;humidity
15262;DHT22;7733;51.554;13.590;2022-10-16T00:01:28;15.00;99.90
15262;DHT22;7733;51.554;13.590;2022-10-16T00:03:56;14.90;99.90
15262;DHT22;7733;51.554;13.590;2022-10-16T00:06:24;14.90;99.90
15262;DHT22;7733;51.554;13.590;2022-10-16T00:08:51;14.90;99.90
15262;DHT22;7733;51.554;13.590;2022-10-16T00:11:20;14.90;99.90
15262;DHT22;7733;51.554;13.590;2022-10-16T00:13:51;14.90;99.90
15262;DHT22;7733;51.554;13.590;2022-10-16T00:16:20;14.90;99.90
15262;DHT22;7733;51.554;13.590;2022-10-16T00:18:45;14.80;99.90
15262;DHT22;7733;51.554;13.590;2022-10-16T00:21:14;14.80;99.90
15262;DHT22;7733;51.554;13.590;2022-10-16T00:23:42;14.80;99.90
15262;DHT22;7733;51.554;13.590;2022-10-16T00:26:11;14.80;99.90
15262;DHT22;7733;51.554;13.590;2022-10-16T00:28:39;14.80;99.90
15262;DHT22;7733;51.554;13.590;2022-10-16T00:31:07;14.80;99.90
15262;DHT22;7733;51.554;13.590;2022-10-16T00:33:35;14.80;99.90
15262;DHT22;7733;51.554;13.590;2022-10-16T00:36:04;14.80;99.90
15262;DHT22;7733;51.554;13.590;2022-10-16T00:38:31;14.70;99.90
15262;DHT22;7733;51.554;13.590;2022-10-16T00:40:57;14.70;99.90
15262;DHT22;7733;51.554;13.590;2022-10-16T00:46:37;14.70;99.90
15262;DHT22;7733;51.554;13.590;2022-10-16T00:49:13;14.70;99.90
15262;DHT22;7733;51.554;13.590;2022-10-16T00:51:43;14.70;99.90
15262;DHT22;7733;51.554;13.590;2022-10-16T00:54:13;14.70;99.90
15262;DHT22;7733;51.554;13.590;2022-10-16T00:56:41;14.70;99.90
15262;DHT22;7733;51.554;13.590;2022-10-16T00:59:15;14.70;99.90
15262;DHT22;7733;51.554;13.590;2022-10-16T01:01:47;14.60;99.90
15262;DHT22;7733;51.554;13.590;2022-10-16T01:04:13;14.70;99.90
15262;DHT22;7733;51.554;13.590;2022-10-16T01:10:22;14.50;99.90
15262;DHT22;7733;51.554;13.590;2022-10-16T01:13:11;14.50;99.90
15262;DHT22;7733;51.554;13.590;2022-10-16T01:16:11;14.40;99.90
15262;DHT22;7733;51.554;13.590;2022-10-16T01:18:54;14.40;99.90
15262;DHT22;7733;51.554;13.590;2022-10-16T01:21:36;14.40;99.90
15262;DHT22;7733;51.554;13.590;2022-10-16T01:24:33;14.40;99.90
15262;DHT22;7733;51.554;13.590;2022-10-16T01:27:25;14.40;99.90
15262;DHT22;7733;51.554;13.590;2022-10-16T01:29:53;14.30;99.90
15262;DHT22;7733;51.554;13.590;2022-10-16T01:32:36;14.30;99.90
15262;DHT22;7733;51.554;13.590;2022-10-16T01:35:20;14.40;99.90
15262;DHT22;7733;51.554;13.590;2022-10-16T01:38:03;14.40;99.90
15262;DHT22;7733;51.554;13.590;2022-10-16T01:40:34;14.50;99.90
15262;DHT22;7733;51.554;13.590;2022-10-16T01:43:06;14.50;99.90
15262;DHT22;7733;51.554;13.590;2022-10-16T01:45:36;14.50;99.90
15262;DHT22;7733;51.554;13.590;2022-10-16T01:48:04;14.60;99.90
15262;DHT22;7733;51.554;13.590;2022-10-16T01:50:37;14.70;99.90
15262;DHT22;7733;51.554;13.590;2022-10-16T01:53:05;14.80;99.90
15262;DHT22;7733;51.554;13.590;2022-10-16T01:55:37;14.90;99.90
15262;DHT22;7733;51.554;13.590;2022-10-16T01:58:09;14.90;99.90
15262;DHT22;7733;51.554;13.590;2022-10-16T02:00:38;14.90;99.90
15262;DHT22;7733;51.554;13.590;2022-10-16T02:03:07;15.00;99.90
15262;DHT22;7733;51.554;13.590;2022-10-16T02:05:41;15.10;99.90
15262;DHT22;7733;51.554;13.590;2022-10-16T02:08:11;15.00;99.90
15262;DHT22;7733;51.554;13.590;2022-10-16T02:10:38;15.00;99.90
15262;DHT22;7733;51.554;13.590;2022-10-16T02:16:14;14.90;99.90
15262;DHT22;7733;51.554;13.590;2022-10-16T02:18:41;14.90;99.90
15262;DHT22;7733;51.554;13.590;2022-10-16T02:21:25;14.90;99.90
15262;DHT22;7733;51.554;13.590;2022-10-16T02:24:07;15.00;99.90
15262;DHT22;7733;51.554;13.590;2022-10-16T02:26:49;15.00;99.90
15262;DHT22;7733;51.554;13.590;2022-10-16T02:29:18;15.00;99.90
15262;DHT22;7733;51.554;13.590;2022-10-16T02:31:52;15.00;99.90
15262;DHT22;7733;51.554;13.590;2022-10-16T02:34:24;15.00;99.90
15262;DHT22;7733;51.554;13.590;2022-10-16T02:36:53;15.00;99.90
15262;DHT22;7733;51.554;13.590;2022-10-16T02:39:20;15.00;99.90
15262;DHT22;7733;51.554;13.590;2022-10-16T02:41:47;15.00;99.90
15262;DHT22;7733;51.554;13.590;2022-10-16T02:44:13;15.00;99.90
15262;DHT22;7733;51.554;13.590;2022-10-16T02:46:38;15.10;99.90
15262;DHT22;7733;51.554;13.590;2022-10-16T02:49:04;15.10;99.90
15262;DHT22;7733;51.554;13.590;2022-10-16T02:51:30;15.10;99.90
15262;DHT22;7733;51.554;13.590;2022-10-16T02:53:55;15.10;99.90
15262;DHT22;7733;51.554;13.590;2022-10-16T02:56:21;15.20;99.90
15262;DHT22;7733;51.554;13.590;2022-10-16T02:58:47;15.20;99.90
15262;DHT22;7733;51.554;13.590;2022-10-16T03:01:12;15.30;99.90
15262;DHT22;7733;51.554;13.590;2022-10-16T03:03:39;15.30;99.90
15262;DHT22;7733;51.554;13.590;2022-10-16T03:06:05;15.40;99.90
15262;DHT22;7733;51.554;13.590;2022-10-16T03:08:31;15.40;99.90
15262;DHT22;7733;51.554;13.590;2022-10-16T03:10:57;15.40;99.90
15262;DHT22;7733;51.554;13.590;2022-10-16T03:13:22;15.40;99.90
15262;DHT22;7733;51.554;13.590;2022-10-16T03:15:48;15.40;99.90
15262;DHT22;7733;51.554;13.590;2022-10-16T03:18:14;15.50;99.90
15262;DHT22;7733;51.554;13.590;2022-10-16T03:20:40;15.40;99.90
15262;DHT22;7733;51.554;13.590;2022-10-16T03:23:05;15.40;99.90
15262;DHT22;7733;51.554;13.590;2022-10-16T03:25:33;15.40;99.90
15262;DHT22;7733;51.554;13.590;2022-10-16T03:27:58;15.40;99.90
15262;DHT22;7733;51.554;13.590;2022-10-16T03:30:24;15.40;99.90
15262;DHT22;7733;51.554;13.590;2022-10-16T03:32:50;15.30;99.90
15262;DHT22;7733;51.554;13.590;2022-10-16T03:35:22;15.30;99.90
15262;DHT22;7733;51.554;13.590;2022-10-16T03:37:49;15.30;99.90
15262;DHT22;7733;51.554;13.590;2022-10-16T03:40:16;15.30;99.90
15262;DHT22;7733;51.554;13.590;2022-10-16T03:42:43;15.30;99.90
15262;DHT22;7733;51.554;13.590;2022-10-16T03:45:09;15.30;99.90
15262;DHT22;7733;51.554;13.590;2022-10-16T03:47:36;15.30;99.90
15262;DHT22;7733;51.554;13.590;2022-10-16T03:50:02;15.40;99.90
15262;DHT22;7733;51.554;13.590;2022-10-16T03:52:29;15.40;99.90
15262;DHT22;7733;51.554;13.590;2022-10-16T03:54:55;15.40;99.90
15262;DHT22;7733;51.554;13.590;2022-10-16T03:57:21;15.40;99.90
15262;DHT22;7733;51.554;13.590;2022-10-16T03:59:46;15.40;99.90
15262;DHT22;7733;51.554;13.590;2022-10-16T04:02:12;15.30;99.90
15262;DHT22;7733;51.554;13.590;2022-10-16T04:04:38;15.30;99.90
15262;DHT22;7733;51.554;13.590;2022-10-16T04:07:04;15.30;99.90
15262;DHT22;7733;51.554;13.590;2022-10-16T04:09:30;15.30;99.90
15262;DHT22;7733;51.554;13.590;2022-10-16T04:11:56;15.30;99.90
15262;DHT22;7733;51.554;13.590;2022-10-16T04:14:21;15.30;99.90
15262;DHT22;7733;51.554;13.590;2022-10-16T04:16:47;15.20;99.90
15262;DHT22;7733;51.554;13.590;2022-10-16T04:19:13;15.20;99.90
15262;DHT22;7733;51.554;13.590;2022-10-16T04:21:39;15.30;99.90
15262;DHT22;7733;51.554;13.590;2022-10-16T04:24:04;15.30;99.90
15262;DHT22;7733;51.554;13.590;2022-10-16T04:26:31;15.20;99.90
15262;DHT22;7733;51.554;13.590;2022-10-16T04:28:56;15.20;99.90
15262;DHT22;7733;51.554;13.590;2022-10-16T04:31:22;15.20;99.90
15262;DHT22;7733;51.554;13.590;2022-10-16T04:33:48;15.10;99.90
15262;DHT22;7733;51.554;13.590;2022-10-16T04:36:14;15.10;99.90
15262;DHT22;7733;51.554;13.590;2022-10-16T04:38:39;15.10;99.90
15262;DHT22;7733;51.554;13.590;2022-10-16T04:41:06;15.10;99.90
15262;DHT22;7733;51.554;13.590;2022-10-16T04:43:33;15.10;99.90
15262;DHT22;7733;51.554;13.590;2022-10-16T04:45:59;15.10;99.90
15262;DHT22;7733;51.554;13.590;2022-10-16T04:48:24;15.10;99.90
15262;DHT22;7733;51.554;13.590;2022-10-16T04:50:50;15.00;99.90
15262;DHT22;7733;51.554;13.590;2022-10-16T04:53:16;15.00;99.90
15262;DHT22;7733;51.554;13.590;2022-10-16T04:55:41;15.00;99.90
15262;DHT22;7733;51.554;13.590;2022-10-16T04:58:08;14.90;99.90
15262;DHT22;7733;51.554;13.590;2022-10-16T05:00:34;14.80;99.90
15262;DHT22;7733;51.554;13.590;2022-10-16T05:03:00;14.90;99.90
15262;DHT22;7733;51.554;13.590;2022-10-16T05:05:27;14.90;99.90
15262;DHT22;7733;51.554;13.590;2022-10-16T05:07:53;14.90;99.90
15262;DHT22;7733;51.554;13.590;2022-10-16T05:10:19;14.90;99.90
15262;DHT22;7733;51.554;13.590;2022-10-16T05:12:46;14.80;99.90
15262;DHT22;7733;51.554;13.590;2022-10-16T05:15:12;14.80;99.90
15262;DHT22;7733;51.554;13.590;2022-10-16T05:17:37;14.80;99.90
15262;DHT22;7733;51.554;13.590;2022-10-16T05:20:03;14.80;99.90
15262;DHT22;7733;51.554;13.590;2022-10-16T05:22:29;14.80;99.90
15262;DHT22;7733;51.554;13.590;2022-10-16T05:24:55;14.80;99.90
15262;DHT22;7733;51.554;13.590;2022-10-16T05:27:21;14.80;99.90
15262;DHT22;7733;51.554;13.590;2022-10-16T05:29:48;14.80;99.90
15262;DHT22;7733;51.554;13.590;2022-10-16T05:32:15;14.70;99.90
15262;DHT22;7733;51.554;13.590;2022-10-16T05:34:42;14.70;99.90
15262;DHT22;7733;51.554;13.590;2022-10-16T05:37:08;14.70;99.90
15262;DHT22;7733;51.554;13.590;2022-10-16T05:39:34;14.70;99.90
15262;DHT22;7733;51.554;13.590;2022-10-16T05:42:00;14.70;99.90
15262;DHT22;7733;51.554;13.590;2022-10-16T05:44:25;14.70;99.90
15262;DHT22;7733;51.554;13.590;2022-10-16T05:46:51;14.70;99.90
15262;DHT22;7733;51.554;13.590;2022-10-16T05:49:16;14.80;99.90
15262;DHT22;7733;51.554;13.590;2022-10-16T05:51:49;14.80;99.90
15262;DHT22;7733;51.554;13.590;2022-10-16T05:54:14;14.80;99.90
15262;DHT22;7733;51.554;13.590;2022-10-16T05:56:40;14.80;99.90
15262;DHT22;7733;51.554;13.590;2022-10-16T05:59:05;14.70;99.90
15262;DHT22;7733;51.554;13.590;2022-10-16T06:01:31;14.70;99.90
15262;DHT22;7733;51.554;13.590;2022-10-16T06:03:57;14.70;99.90
15262;DHT22;7733;51.554;13.590;2022-10-16T06:06:25;14.70;99.90
15262;DHT22;7733;51.554;13.590;2022-10-16T06:08:54;14.80;99.90
15262;DHT22;7733;51.554;13.590;2022-10-16T06:11:27;14.70;99.90
15262;DHT22;7733;51.554;13.590;2022-10-16T06:13:56;14.60;99.90
15262;DHT22;7733;51.554;13.590;2022-10-16T06:16:24;14.60;99.90
15262;DHT22;7733;51.554;13.590;2022-10-16T06:18:52;14.70;99.90
15262;DHT22;7733;51.554;13.590;2022-10-16T06:21:24;14.70;99.90
15262;DHT22;7733;51.554;13.590;2022-10-16T06:23:51;14.60;99.90
15262;DHT22;7733;51.554;13.590;2022-10-16T06:26:20;14.60;99.90
15262;DHT22;7733;51.554;13.590;2022-10-16T06:28:49;14.70;99.90
15262;DHT22;7733;51.554;13.590;2022-10-16T06:31:16;14.60;99.90
15262;DHT22;7733;51.554;13.590;2022-10-16T06:33:42;14.60;99.90
15262;DHT22;7733;51.554;13.590;2022-10-16T06:36:14;14.70;99.90
15262;DHT22;7733;51.554;13.590;2022-10-16T06:38:42;14.80;99.90
15262;DHT22;7733;51.554;13.590;2022-10-16T06:41:13;14.70;99.90
15262;DHT22;7733;51.554;13.590;2022-10-16T06:43:41;14.80;99.90
15262;DHT22;7733;51.554;13.590;2022-10-16T06:46:09;14.90;99.90
15262;DHT22;7733;51.554;13.590;2022-10-16T06:48:36;14.90;99.90
15262;DHT22;7733;51.554;13.590;2022-10-16T06:51:14;15.00;99.90
15262;DHT22;7733;51.554;13.590;2022-10-16T06:53:50;15.10;99.90
15262;DHT22;7733;51.554;13.590;2022-10-16T06:56:21;15.10;99.90
15262;DHT22;7733;51.554;13.590;2022-10-16T06:58:50;15.20;99.90
15262;DHT22;7733;51.554;13.590;2022-10-16T07:01:17;15.30;99.90
15262;DHT22;7733;51.554;13.590;2022-10-16T07:03:45;15.30;99.90
15262;DHT22;7733;51.554;13.590;2022-10-16T07:06:13;15.40;99.90
15262;DHT22;7733;51.554;13.590;2022-10-16T07:08:42;15.50;99.90
15262;DHT22;7733;51.554;13.590;2022-10-16T07:11:14;15.60;99.90
15262;DHT22;7733;51.554;13.590;2022-10-16T07:13:43;15.70;99.90
15262;DHT22;7733;51.554;13.590;2022-10-16T07:16:14;15.80;99.90
15262;DHT22;7733;51.554;13.590;2022-10-16T07:18:42;15.90;99.90
15262;DHT22;7733;51.554;13.590;2022-10-16T07:21:20;15.90;99.90
15262;DHT22;7733;51.554;13.590;2022-10-16T07:23:51;15.90;99.90
15262;DHT22;7733;51.554;13.590;2022-10-16T07:26:22;16.00;99.90
15262;DHT22;7733;51.554;13.590;2022-10-16T07:28:49;16.00;99.90
15262;DHT22;7733;51.554;13.590;2022-10-16T07:31:16;16.00;99.90
15262;DHT22;7733;51.554;13.590;2022-10-16T07:33:44;16.10;99.90
15262;DHT22;7733;51.554;13.590;2022-10-16T07:36:11;16.10;99.90
15262;DHT22;7733;51.554;13.590;2022-10-16T07:38:37;16.10;99.90
15262;DHT22;7733;51.554;13.590;2022-10-16T07:41:05;16.20;99.90
15262;DHT22;7733;51.554;13.590;2022-10-16T07:43:33;16.20;99.90
15262;DHT22;7733;51.554;13.590;2022-10-16T07:45:59;16.20;99.90
15262;DHT22;7733;51.554;13.590;2022-10-16T07:48:31;16.30;99.90
15262;DHT22;7733;51.554;13.590;2022-10-16T07:50:59;16.30;99.90
15262;DHT22;7733;51.554;13.590;2022-10-16T07:53:27;16.30;99.90
15262;DHT22;7733;51.554;13.590;2022-10-16T07:56:00;16.30;99.90
15262;DHT22;7733;51.554;13.590;2022-10-16T07:58:28;16.40;99.90
15262;DHT22;7733;51.554;13.590;2022-10-16T08:00:55;16.30;99.90
15262;DHT22;7733;51.554;13.590;2022-10-16T08:03:21;16.40;99.90
15262;DHT22;7733;51.554;13.590;2022-10-16T08:05:47;16.40;99.90
15262;DHT22;7733;51.554;13.590;2022-10-16T08:08:17;16.60;99.90
15262;DHT22;7733;51.554;13.590;2022-10-16T08:10:43;16.70;99.90
15262;DHT22;7733;51.554;13.590;2022-10-16T08:13:10;16.90;99.90
15262;DHT22;7733;51.554;13.590;2022-10-16T08:15:35;17.10;99.90
15262;DHT22;7733;51.554;13.590;2022-10-16T08:18:03;17.30;99.90
15262;DHT22;7733;51.554;13.590;2022-10-16T08:20:31;17.50;99.90
15262;DHT22;7733;51.554;13.590;2022-10-16T08:22:59;17.60;99.90
15262;DHT22;7733;51.554;13.590;2022-10-16T08:25:25;17.70;99.90
15262;DHT22;7733;51.554;13.590;2022-10-16T08:27:51;17.60;99.90
15262;DHT22;7733;51.554;13.590;2022-10-16T08:30:18;17.60;99.90
15262;DHT22;7733;51.554;13.590;2022-10-16T08:32:45;17.50;99.90
15262;DHT22;7733;51.554;13.590;2022-10-16T08:35:12;17.50;99.90
15262;DHT22;7733;51.554;13.590;2022-10-16T08:37:39;17.40;99.90
15262;DHT22;7733;51.554;13.590;2022-10-16T08:40:07;17.40;99.90
15262;DHT22;7733;51.554;13.590;2022-10-16T08:42:55;17.40;99.90
15262;DHT22;7733;51.554;13.590;2022-10-16T08:45:43;17.50;99.90
15262;DHT22;7733;51.554;13.590;2022-10-16T08:51:08;17.50;99.90
15262;DHT22;7733;51.554;13.590;2022-10-16T08:53:49;17.60;99.90
15262;DHT22;7733;51.554;13.590;2022-10-16T08:56:19;17.60;99.90
15262;DHT22;7733;51.554;13.590;2022-10-16T08:58:46;17.70;99.90
15262;DHT22;7733;51.554;13.590;2022-10-16T09:01:15;17.80;99.90
15262;DHT22;7733;51.554;13.590;2022-10-16T09:07:06;18.30;99.90
15262;DHT22;7733;51.554;13.590;2022-10-16T09:16:12;18.80;99.90
15262;DHT22;7733;51.554;13.590;2022-10-16T09:21:46;18.80;99.90
15262;DHT22;7733;51.554;13.590;2022-10-16T09:24:18;18.80;99.90
15262;DHT22;7733;51.554;13.590;2022-10-16T09:26:46;18.90;99.90
15262;DHT22;7733;51.554;13.590;2022-10-16T09:29:13;19.00;99.90
15262;DHT22;7733;51.554;13.590;2022-10-16T09:31:41;19.10;99.90
15262;DHT22;7733;51.554;13.590;2022-10-16T09:34:21;19.30;99.90
15262;DHT22;7733;51.554;13.590;2022-10-16T09:36:57;19.20;99.90
15262;DHT22;7733;51.554;13.590;2022-10-16T09:39:23;19.10;99.90
15262;DHT22;7733;51.554;13.590;2022-10-16T09:41:50;19.00;99.90
15262;DHT22;7733;51.554;13.590;2022-10-16T09:47:25;18.90;99.90
15262;DHT22;7733;51.554;13.590;2022-10-16T09:49:54;19.00;99.90
15262;DHT22;7733;51.554;13.590;2022-10-16T09:52:27;19.10;99.90
15262;DHT22;7733;51.554;13.590;2022-10-16T09:54:55;19.20;99.90
15262;DHT22;7733;51.554;13.590;2022-10-16T09:57:22;19.20;99.90
15262;DHT22;7733;51.554;13.590;2022-10-16T09:59:55;19.20;99.90
15262;DHT22;7733;51.554;13.590;2022-10-16T10:02:36;19.00;99.90
15262;DHT22;7733;51.554;13.590;2022-10-16T10:05:05;19.00;99.90
15262;DHT22;7733;51.554;13.590;2022-10-16T10:07:43;19.10;99.90
15262;DHT22;7733;51.554;13.590;2022-10-16T10:10:22;19.30;99.90
15262;DHT22;7733;51.554;13.590;2022-10-16T10:12:50;19.40;99.90
15262;DHT22;7733;51.554;13.590;2022-10-16T10:15:16;19.50;99.90
15262;DHT22;7733;51.554;13.590;2022-10-16T10:17:54;19.50;99.90
15262;DHT22;7733;51.554;13.590;2022-10-16T10:22:48;19.70;99.90
15262;DHT22;7733;51.554;13.590;2022-10-16T10:25:32;19.90;99.90
15262;DHT22;7733;51.554;13.590;2022-10-16T10:33:31;20.00;99.90
15262;DHT22;7733;51.554;13.590;2022-10-16T10:39:16;20.10;99.90
15262;DHT22;7733;51.554;13.590;2022-10-16T10:42:19;20.20;99.90
15262;DHT22;7733;51.554;13.590;2022-10-16T10:45:15;19.90;99.90
15262;DHT22;7733;51.554;13.590;2022-10-16T10:47:48;19.80;99.90
15262;DHT22;7733;51.554;13.590;2022-10-16T10:50:30;19.80;99.90
15262;DHT22;7733;51.554;13.590;2022-10-16T10:53:36;19.90;99.90
15262;DHT22;7733;51.554;13.590;2022-10-16T10:56:40;19.80;99.90
15262;DHT22;7733;51.554;13.590;2022-10-16T10:59:39;19.90;99.90
15262;DHT22;7733;51.554;13.590;2022-10-16T11:05:41;20.10;99.90
15262;DHT22;7733;51.554;13.590;2022-10-16T11:08:18;20.10;99.90
15262;DHT22;7733;51.554;13.590;2022-10-16T11:11:10;20.20;99.90
15262;DHT22;7733;51.554;13.590;2022-10-16T11:14:19;20.20;99.90
15262;DHT22;7733;51.554;13.590;2022-10-16T11:16:56;20.20;99.90
15262;DHT22;7733;51.554;13.590;2022-10-16T11:22:19;20.20;99.90
15262;DHT22;7733;51.554;13.590;2022-10-16T11:24:55;20.20;99.90
15262;DHT22;7733;51.554;13.590;2022-10-16T11:27:44;20.20;99.90
15262;DHT22;7733;51.554;13.590;2022-10-16T11:30:27;20.20;99.90
15262;DHT22;7733;51.554;13.590;2022-10-16T11:35:40;20.10;99.90
15262;DHT22;7733;51.554;13.590;2022-10-16T11:38:14;20.10;99.90
15262;DHT22;7733;51.554;13.590;2022-10-16T11:40:48;20.10;99.90
15262;DHT22;7733;51.554;13.590;2022-10-16T11:43:28;20.10;99.90
15262;DHT22;7733;51.554;13.590;2022-10-16T11:46:14;19.90;99.90
15262;DHT22;7733;51.554;13.590;2022-10-16T11:48:55;19.90;99.90
15262;DHT22;7733;51.554;13.590;2022-10-16T11:57:20;20.00;99.90
15262;DHT22;7733;51.554;13.590;2022-10-16T12:00:17;20.00;99.90
15262;DHT22;7733;51.554;13.590;2022-10-16T12:03:17;20.00;99.90
15262;DHT22;7733;51.554;13.590;2022-10-16T12:08:27;20.10;99.90
15262;DHT22;7733;51.554;13.590;2022-10-16T12:11:05;20.10;99.90
15262;DHT22;7733;51.554;13.590;2022-10-16T12:13:45;20.20;99.90
15262;DHT22;7733;51.554;13.590;2022-10-16T12:18:44;20.30;99.90
15262;DHT22;7733;51.554;13.590;2022-10-16T12:21:12;20.30;99.90
15262;DHT22;7733;51.554;13.590;2022-10-16T12:23:53;20.30;99.90
15262;DHT22;7733;51.554;13.590;2022-10-16T12:26:29;20.40;99.90
15262;DHT22;7733;51.554;13.590;2022-10-16T12:32:33;20.50;99.90
15262;DHT22;7733;51.554;13.590;2022-10-16T12:35:02;20.50;99.90
15262;DHT22;7733;51.554;13.590;2022-10-16T12:37:35;20.50;99.90
15262;DHT22;7733;51.554;13.590;2022-10-16T12:40:27;20.60;99.90
15262;DHT22;7733;51.554;13.590;2022-10-16T12:42:56;20.50;99.90
15262;DHT22;7733;51.554;13.590;2022-10-16T12:45:33;20.50;99.90
15262;DHT22;7733;51.554;13.590;2022-10-16T12:48:18;20.50;99.90
15262;DHT22;7733;51.554;13.590;2022-10-16T12:50:45;20.60;99.90
15262;DHT22;7733;51.554;13.590;2022-10-16T12:53:19;20.60;99.90
15262;DHT22;7733;51.554;13.590;2022-10-16T12:56:16;20.60;99.90
15262;DHT22;7733;51.554;13.590;2022-10-16T13:05:51;20.40;99.90
15262;DHT22;7733;51.554;13.590;2022-10-16T13:08:47;20.30;99.90
15262;DHT22;7733;51.554;13.590;2022-10-16T13:11:51;20.30;99.90
15262;DHT22;7733;51.554;13.590;2022-10-16T13:20:31;20.30;99.90
15262;DHT22;7733;51.554;13.590;2022-10-16T13:23:15;20.40;99.90
15262;DHT22;7733;51.554;13.590;2022-10-16T13:26:06;20.40;99.90
15262;DHT22;7733;51.554;13.590;2022-10-16T13:28:42;20.30;99.90
15262;DHT22;7733;51.554;13.590;2022-10-16T13:31:20;20.40;99.90
15262;DHT22;7733;51.554;13.590;2022-10-16T13:33:52;20.50;99.90
15262;DHT22;7733;51.554;13.590;2022-10-16T13:36:23;20.50;99.90
15262;DHT22;7733;51.554;13.590;2022-10-16T13:39:21;20.50;99.90
15262;DHT22;7733;51.554;13.590;2022-10-16T13:42:05;20.60;99.90
15262;DHT22;7733;51.554;13.590;2022-10-16T13:44:49;20.70;99.90
15262;DHT22;7733;51.554;13.590;2022-10-16T13:47:24;20.80;99.90
15262;DHT22;7733;51.554;13.590;2022-10-16T13:50:11;20.80;99.90
15262;DHT22;7733;51.554;13.590;2022-10-16T13:52:38;20.60;99.90
15262;DHT22;7733;51.554;13.590;2022-10-16T13:55:12;20.60;99.90
15262;DHT22;7733;51.554;13.590;2022-10-16T13:57:40;20.50;99.90
15262;DHT22;7733;51.554;13.590;2022-10-16T14:00:24;20.50;99.90
15262;DHT22;7733;51.554;13.590;2022-10-16T14:03:13;20.40;99.90
15262;DHT22;7733;51.554;13.590;2022-10-16T14:05:47;20.30;99.90
15262;DHT22;7733;51.554;13.590;2022-10-16T14:08:15;20.20;99.90
15262;DHT22;7733;51.554;13.590;2022-10-16T14:10:41;20.20;99.90
15262;DHT22;7733;51.554;13.590;2022-10-16T14:13:13;20.20;99.90
15262;DHT22;7733;51.554;13.590;2022-10-16T14:15:47;20.20;99.90
15262;DHT22;7733;51.554;13.590;2022-10-16T14:18:21;20.20;99.90
15262;DHT22;7733;51.554;13.590;2022-10-16T14:20:49;20.30;99.90
15262;DHT22;7733;51.554;13.590;2022-10-16T14:23:30;20.30;99.90
15262;DHT22;7733;51.554;13.590;2022-10-16T14:26:27;20.40;99.90
15262;DHT22;7733;51.554;13.590;2022-10-16T14:29:14;20.30;99.90
15262;DHT22;7733;51.554;13.590;2022-10-16T14:31:42;20.30;99.90
15262;DHT22;7733;51.554;13.590;2022-10-16T14:34:27;20.30;99.90
15262;DHT22;7733;51.554;13.590;2022-10-16T14:37:09;20.30;99.90
15262;DHT22;7733;51.554;13.590;2022-10-16T14:39:51;20.30;99.90
15262;DHT22;7733;51.554;13.590;2022-10-16T14:42:18;20.30;99.90
15262;DHT22;7733;51.554;13.590;2022-10-16T14:44:48;20.30;99.90
15262;DHT22;7733;51.554;13.590;2022-10-16T14:47:20;20.30;99.90
15262;DHT22;7733;51.554;13.590;2022-10-16T14:49:52;20.40;99.90
15262;DHT22;7733;51.554;13.590;2022-10-16T14:52:24;20.30;99.90
15262;DHT22;7733;51.554;13.590;2022-10-16T14:54:50;20.30;99.90
15262;DHT22;7733;51.554;13.590;2022-10-16T14:57:23;20.20;99.90
15262;DHT22;7733;51.554;13.590;2022-10-16T14:59:52;20.20;99.90
15262;DHT22;7733;51.554;13.590;2022-10-16T15:04:46;20.10;99.90
15262;DHT22;7733;51.554;13.590;2022-10-16T15:07:12;20.10;99.90
15262;DHT22;7733;51.554;13.590;2022-10-16T15:09:38;20.10;99.90
15262;DHT22;7733;51.554;13.590;2022-10-16T15:12:04;20.10;99.90
15262;DHT22;7733;51.554;13.590;2022-10-16T15:14:30;20.10;99.90
15262;DHT22;7733;51.554;13.590;2022-10-16T15:16:55;20.00;99.90
15262;DHT22;7733;51.554;13.590;2022-10-16T15:19:21;20.00;99.90
15262;DHT22;7733;51.554;13.590;2022-10-16T15:21:47;19.90;99.90
15262;DHT22;7733;51.554;13.590;2022-10-16T15:24:13;20.00;99.90
15262;DHT22;7733;51.554;13.590;2022-10-16T15:26:39;20.00;99.90
15262;DHT22;7733;51.554;13.590;2022-10-16T15:29:05;20.00;99.90
15262;DHT22;7733;51.554;13.590;2022-10-16T15:31:31;20.00;99.90
15262;DHT22;7733;51.554;13.590;2022-10-16T15:33:57;20.10;99.90
15262;DHT22;7733;51.554;13.590;2022-10-16T15:36:41;20.10;99.90
15262;DHT22;7733;51.554;13.590;2022-10-16T15:39:15;20.00;99.90
15262;DHT22;7733;51.554;13.590;2022-10-16T15:41:44;20.00;99.90
15262;DHT22;7733;51.554;13.590;2022-10-16T15:44:15;19.90;99.90
15262;DHT22;7733;51.554;13.590;2022-10-16T15:46:42;19.90;99.90
15262;DHT22;7733;51.554;13.590;2022-10-16T15:49:09;19.90;99.90
15262;DHT22;7733;51.554;13.590;2022-10-16T15:51:38;19.80;99.90
15262;DHT22;7733;51.554;13.590;2022-10-16T15:54:05;19.80;99.90
15262;DHT22;7733;51.554;13.590;2022-10-16T15:56:31;19.70;99.90
15262;DHT22;7733;51.554;13.590;2022-10-16T15:58:59;19.60;99.90
15262;DHT22;7733;51.554;13.590;2022-10-16T16:01:26;19.60;99.90
15262;DHT22;7733;51.554;13.590;2022-10-16T16:03:55;19.50;99.90
15262;DHT22;7733;51.554;13.590;2022-10-16T16:06:21;19.40;99.90
15262;DHT22;7733;51.554;13.590;2022-10-16T16:08:49;19.40;99.90
15262;DHT22;7733;51.554;13.590;2022-10-16T16:11:16;19.30;99.90
15262;DHT22;7733;51.554;13.590;2022-10-16T16:13:43;19.20;99.90
15262;DHT22;7733;51.554;13.590;2022-10-16T16:16:14;19.10;99.90
15262;DHT22;7733;51.554;13.590;2022-10-16T16:18:42;19.10;99.90
15262;DHT22;7733;51.554;13.590;2022-10-16T16:21:10;19.00;99.90
15262;DHT22;7733;51.554;13.590;2022-10-16T16:23:37;18.80;99.90
15262;DHT22;7733;51.554;13.590;2022-10-16T16:26:16;18.70;99.90
15262;DHT22;7733;51.554;13.590;2022-10-16T16:28:52;18.70;99.90
15262;DHT22;7733;51.554;13.590;2022-10-16T16:31:20;18.60;99.90
15262;DHT22;7733;51.554;13.590;2022-10-16T16:33:48;18.50;99.90
15262;DHT22;7733;51.554;13.590;2022-10-16T16:36:14;18.50;99.90
15262;DHT22;7733;51.554;13.590;2022-10-16T16:38:39;18.50;99.90
15262;DHT22;7733;51.554;13.590;2022-10-16T16:41:17;18.50;99.90
15262;DHT22;7733;51.554;13.590;2022-10-16T16:43:44;18.60;99.90
15262;DHT22;7733;51.554;13.590;2022-10-16T16:46:11;18.50;99.90
15262;DHT22;7733;51.554;13.590;2022-10-16T16:48:37;18.50;99.90
15262;DHT22;7733;51.554;13.590;2022-10-16T16:51:04;18.50;99.90
15262;DHT22;7733;51.554;13.590;2022-10-16T16:53:35;18.60;99.90
15262;DHT22;7733;51.554;13.590;2022-10-16T16:56:05;18.50;99.90
15262;DHT22;7733;51.554;13.590;2022-10-16T16:58:31;18.40;99.90
15262;DHT22;7733;51.554;13.590;2022-10-16T17:00:58;18.40;99.90
15262;DHT22;7733;51.554;13.590;2022-10-16T17:03:27;18.30;99.90
15262;DHT22;7733;51.554;13.590;2022-10-16T17:06:06;18.20;99.90
15262;DHT22;7733;51.554;13.590;2022-10-16T17:08:34;18.20;99.90
15262;DHT22;7733;51.554;13.590;2022-10-16T17:11:01;18.20;99.90
15262;DHT22;7733;51.554;13.590;2022-10-16T17:13:32;18.10;99.90
15262;DHT22;7733;51.554;13.590;2022-10-16T17:16:01;18.10;99.90